Time;durP1;ratioP1;P1;durP2;ratioP2;P2;SDS_P1;SDS_P2;PMS_P1;PMS_P2;Temp;Humidity;BMP_temperature;BMP_pressure;BME280_temperature;BME280_humidity;BME280_pressure;Samples;Min_cycle;Max_cycle;Signal;HPM_P1;HPM_P2
2021/05/25 00:00:16;;;;;;;2.17;1.97;;;10.40;99.90;;;;;;5013067;28;20222;-88
2021/05/25 00:02:44;;;;;;;2.10;1.53;;;10.40;99.90;;;;;;5012679;28;20191;-87
2021/05/25 00:05:12;;;;;;;1.27;1.17;;;10.40;99.90;;;;;;5017309;28;20202;-88
2021/05/25 00:07:38;;;;;;;1.63;1.27;;;10.40;99.90;;;;;;5013983;28;20226;-87
2021/05/25 00:10:06;;;;;;;1.87;1.77;;;10.30;99.90;;;;;;5003894;28;20218;-88
2021/05/25 00:12:32;;;;;;;1.20;1.10;;;10.30;99.90;;;;;;5013679;28;20325;-88
2021/05/25 00:14:58;;;;;;;1.77;1.33;;;10.30;99.90;;;;;;5012165;28;20214;-89
2021/05/25 00:17:23;;;;;;;1.37;1.27;;;10.30;99.90;;;;;;5015329;28;20206;-88
2021/05/25 00:19:49;;;;;;;2.77;1.53;;;10.30;99.90;;;;;;5019970;28;21052;-89
2021/05/25 00:22:15;;;;;;;1.70;1.60;;;10.30;99.90;;;;;;5012592;28;20706;-87
2021/05/25 00:24:41;;;;;;;1.70;1.60;;;10.30;99.90;;;;;;5020332;28;20218;-89
2021/05/25 00:27:07;;;;;;;1.90;1.73;;;10.30;99.90;;;;;;5004594;28;20232;-88
2021/05/25 00:29:33;;;;;;;1.43;1.33;;;10.20;99.90;;;;;;5012200;28;20195;-88
2021/05/25 00:31:59;;;;;;;1.63;1.53;;;10.30;99.90;;;;;;5012735;28;21038;-87
2021/05/25 00:34:24;;;;;;;1.27;1.17;;;10.20;99.90;;;;;;5013045;28;20215;-88
2021/05/25 00:36:50;;;;;;;1.73;1.20;;;10.20;99.90;;;;;;5004405;28;20285;-89
2021/05/25 00:39:16;;;;;;;1.97;1.27;;;10.20;99.90;;;;;;5013350;28;20223;-85
2021/05/25 00:41:42;;;;;;;2.43;1.50;;;10.20;99.90;;;;;;5013311;28;20196;-87
2021/05/25 00:44:09;;;;;;;2.10;1.77;;;10.20;99.90;;;;;;5015055;28;20306;-87
2021/05/25 00:46:38;;;;;;;3.23;1.60;;;10.20;99.90;;;;;;5019572;28;20234;-87
2021/05/25 00:49:05;;;;;;;2.90;1.87;;;10.20;99.90;;;;;;5013683;28;20333;-87
2021/05/25 00:51:31;;;;;;;1.90;1.43;;;10.10;99.90;;;;;;5018362;28;20214;-89
2021/05/25 00:53:58;;;;;;;3.10;1.30;;;10.10;99.90;;;;;;4999621;28;20226;-88
2021/05/25 00:56:23;;;;;;;1.40;1.03;;;9.80;99.90;;;;;;5016032;28;20245;-87
2021/05/25 00:58:51;;;;;;;4.93;0.50;;;9.80;99.90;;;;;;4998393;28;20218;-87
2021/05/25 01:01:17;;;;;;;0.90;0.83;;;9.70;99.90;;;;;;5013453;28;20215;-86
2021/05/25 01:03:43;;;;;;;2.17;0.87;;;9.70;99.90;;;;;;5013059;28;20671;-87
2021/05/25 01:06:09;;;;;;;0.43;0.43;;;9.60;99.90;;;;;;5011889;28;20222;-87
2021/05/25 01:08:37;;;;;;;0.40;0.40;;;9.60;99.90;;;;;;5011515;28;20804;-86
2021/05/25 01:11:05;;;;;;;1.23;0.73;;;9.50;99.90;;;;;;5020904;28;20672;-87
2021/05/25 01:13:40;;;;;;;0.60;0.53;;;9.50;99.90;;;;;;5012200;28;20227;-89
2021/05/25 01:16:06;;;;;;;0.90;0.90;;;9.50;99.90;;;;;;5013245;28;20241;-88
2021/05/25 01:18:32;;;;;;;0.47;0.47;;;9.40;99.90;;;;;;5004579;28;20761;-87
2021/05/25 01:20:59;;;;;;;0.97;0.80;;;9.40;99.90;;;;;;5014363;28;20223;-88
2021/05/25 01:23:25;;;;;;;0.80;0.80;;;9.30;99.90;;;;;;5017518;28;20616;-88
2021/05/25 01:25:51;;;;;;;0.57;0.57;;;9.30;99.90;;;;;;5019251;28;20752;-88
2021/05/25 01:28:20;;;;;;;1.97;0.80;;;9.40;99.90;;;;;;5003706;28;20231;-87
2021/05/25 01:30:49;;;;;;;1.27;1.10;;;9.30;99.90;;;;;;5035572;28;20276;-88
2021/05/25 01:33:15;;;;;;;0.93;0.87;;;9.20;99.90;;;;;;5008357;28;20322;-89
2021/05/25 01:35:42;;;;;;;0.90;0.73;;;9.20;99.90;;;;;;5003128;28;20200;-87
2021/05/25 01:38:10;;;;;;;0.83;0.83;;;9.20;99.90;;;;;;5030044;28;20195;-88
2021/05/25 01:40:37;;;;;;;1.37;1.27;;;9.20;99.90;;;;;;5009688;28;20258;-88
2021/05/25 01:43:03;;;;;;;0.77;0.73;;;9.20;99.90;;;;;;5011504;28;20255;-89
2021/05/25 01:45:30;;;;;;;0.53;0.53;;;9.30;99.90;;;;;;5002599;28;20707;-87
2021/05/25 01:47:58;;;;;;;7.10;0.50;;;9.30;99.90;;;;;;5020389;28;20357;-89
2021/05/25 01:50:25;;;;;;;0.40;0.40;;;9.20;99.90;;;;;;5014566;28;20236;-88
2021/05/25 01:53:03;;;;;;;0.40;0.40;;;9.20;99.90;;;;;;5010718;28;20227;-87
2021/05/25 01:55:36;;;;;;;0.50;0.50;;;9.20;99.90;;;;;;5037402;28;20219;-89
2021/05/25 01:58:12;;;;;;;0.50;0.50;;;9.20;99.90;;;;;;5013231;28;20269;-90
2021/05/25 02:00:40;;;;;;;0.30;0.30;;;9.20;99.90;;;;;;5023457;28;20215;-89
2021/05/25 02:03:07;;;;;;;0.47;0.47;;;9.10;99.90;;;;;;5015813;28;20219;-91
2021/05/25 02:05:34;;;;;;;0.43;0.43;;;9.10;99.90;;;;;;5019277;28;20191;-90
2021/05/25 02:08:01;;;;;;;0.60;0.60;;;9.10;99.90;;;;;;5015258;28;20231;-90
2021/05/25 02:10:28;;;;;;;1.03;0.93;;;9.00;99.90;;;;;;5014523;28;20305;-90
2021/05/25 02:12:56;;;;;;;4.93;1.67;;;9.00;99.90;;;;;;5040198;28;20235;-91
2021/05/25 02:15:23;;;;;;;2.10;1.20;;;9.00;99.90;;;;;;5014326;28;21061;-89
2021/05/25 02:17:49;;;;;;;0.60;0.40;;;9.10;99.90;;;;;;5022858;28;20235;-90
2021/05/25 02:20:15;;;;;;;2.07;0.47;;;9.10;99.90;;;;;;5018999;28;20664;-90
2021/05/25 02:22:41;;;;;;;0.47;0.47;;;9.00;99.90;;;;;;5031342;28;20596;-90
2021/05/25 02:25:07;;;;;;;0.43;0.43;;;9.00;99.90;;;;;;5014900;28;20262;-89
2021/05/25 02:27:33;;;;;;;0.23;0.23;;;9.00;99.90;;;;;;5001424;28;20278;-90
2021/05/25 02:29:59;;;;;;;0.40;0.40;;;9.00;99.90;;;;;;5005525;28;20346;-90
2021/05/25 02:32:25;;;;;;;0.20;0.20;;;9.00;99.90;;;;;;5017293;28;20733;-90
2021/05/25 02:34:51;;;;;;;0.80;0.80;;;9.00;99.90;;;;;;5005158;28;20302;-90
2021/05/25 02:37:16;;;;;;;0.40;0.40;;;9.00;99.90;;;;;;5016472;28;20571;-90
2021/05/25 02:39:42;;;;;;;0.67;0.67;;;9.00;99.90;;;;;;5016593;28;20229;-91
2021/05/25 02:42:08;;;;;;;1.97;0.60;;;9.00;99.90;;;;;;5040011;28;20214;-89
2021/05/25 02:44:34;;;;;;;1.47;1.00;;;9.00;99.90;;;;;;5017671;28;20202;-90
2021/05/25 02:46:59;;;;;;;0.40;0.40;;;9.00;99.90;;;;;;5016101;28;20365;-89
2021/05/25 02:49:25;;;;;;;0.30;0.30;;;9.00;99.90;;;;;;5003191;28;20223;-89
2021/05/25 02:51:51;;;;;;;0.50;0.50;;;9.00;99.90;;;;;;5000832;28;20575;-91
2021/05/25 02:54:17;;;;;;;0.20;0.20;;;9.00;99.90;;;;;;5013765;28;21037;-90
2021/05/25 02:56:42;;;;;;;0.33;0.33;;;9.00;99.90;;;;;;5005931;28;20639;-89
2021/05/25 02:59:08;;;;;;;1.83;0.50;;;9.00;99.90;;;;;;5016481;28;20225;-89
2021/05/25 03:01:34;;;;;;;0.23;0.23;;;9.10;99.90;;;;;;5013672;28;21042;-89
2021/05/25 03:04:00;;;;;;;3.47;0.40;;;9.10;99.90;;;;;;5038769;28;20222;-90
2021/05/25 03:06:26;;;;;;;0.47;0.47;;;9.00;99.90;;;;;;5015609;28;20308;-89
2021/05/25 03:08:52;;;;;;;2.33;0.27;;;9.00;99.90;;;;;;4996928;28;20719;-90
2021/05/25 03:11:17;;;;;;;1.80;0.50;;;9.00;99.90;;;;;;5002891;28;20191;-89
2021/05/25 03:13:43;;;;;;;0.40;0.40;;;9.00;99.90;;;;;;4994277;28;20354;-90
2021/05/25 03:16:09;;;;;;;0.87;0.87;;;9.00;99.90;;;;;;4991277;28;20302;-90
2021/05/25 03:18:34;;;;;;;0.93;0.93;;;9.00;99.90;;;;;;5014327;28;20656;-89
2021/05/25 03:21:00;;;;;;;0.17;0.17;;;9.00;99.90;;;;;;4998577;28;21154;-92
2021/05/25 03:23:26;;;;;;;0.43;0.30;;;8.90;99.90;;;;;;5007312;28;21307;-90
2021/05/25 03:25:54;;;;;;;0.73;0.73;;;8.90;99.90;;;;;;4995990;28;20228;-89
2021/05/25 03:28:20;;;;;;;0.53;0.53;;;8.90;99.90;;;;;;5009232;28;20219;-90
2021/05/25 03:30:46;;;;;;;3.10;0.80;;;8.90;99.90;;;;;;5013051;28;20755;-91
2021/05/25 03:33:12;;;;;;;0.40;0.40;;;8.90;99.90;;;;;;5005286;28;20233;-90
2021/05/25 03:35:37;;;;;;;0.40;0.40;;;8.90;99.90;;;;;;5014959;28;20290;-89
2021/05/25 03:38:05;;;;;;;4.00;1.07;;;8.90;99.90;;;;;;5015285;28;20202;-89
2021/05/25 03:40:30;;;;;;;3.37;0.70;;;8.90;99.90;;;;;;5000098;28;20228;-91
2021/05/25 03:42:57;;;;;;;0.63;0.50;;;8.90;99.90;;;;;;4987543;28;21308;-91
2021/05/25 03:45:24;;;;;;;0.73;0.70;;;8.90;99.90;;;;;;5002798;28;20240;-91
2021/05/25 03:47:50;;;;;;;3.23;0.50;;;8.80;99.90;;;;;;5006099;28;20211;-91
2021/05/25 03:50:17;;;;;;;0.30;0.30;;;8.80;99.90;;;;;;5007481;28;20193;-93
2021/05/25 03:52:45;;;;;;;0.40;0.40;;;8.70;99.90;;;;;;5014486;28;20296;-91
2021/05/25 04:00:43;;;;;;;0.30;0.30;;;8.70;99.90;;;;;;5003258;28;20271;-88
2021/05/25 04:03:09;;;;;;;0.10;0.10;;;8.70;99.90;;;;;;5010491;28;20272;-89
2021/05/25 04:05:35;;;;;;;0.17;0.17;;;8.70;99.90;;;;;;4993334;28;20196;-89
2021/05/25 04:08:01;;;;;;;0.30;0.30;;;8.70;99.90;;;;;;4982710;28;20216;-89
2021/05/25 04:10:27;;;;;;;0.30;0.30;;;8.60;99.90;;;;;;4995974;28;20211;-90
2021/05/25 04:12:53;;;;;;;0.30;0.30;;;8.70;99.90;;;;;;5010531;28;20219;-92
2021/05/25 04:15:19;;;;;;;0.30;0.30;;;8.60;99.90;;;;;;5008986;28;20745;-90
2021/05/25 04:17:45;;;;;;;0.97;0.43;;;8.60;99.90;;;;;;4991967;28;20290;-91
2021/05/25 04:20:12;;;;;;;0.23;0.23;;;8.60;99.90;;;;;;5008643;28;20200;-88
2021/05/25 04:22:38;;;;;;;0.30;0.30;;;8.60;99.90;;;;;;4998386;28;20581;-91
2021/05/25 04:25:06;;;;;;;0.33;0.33;;;8.60;99.90;;;;;;5009586;28;20214;-91
2021/05/25 04:27:32;;;;;;;0.20;0.20;;;8.60;99.90;;;;;;5010507;28;20357;-90
2021/05/25 04:29:58;;;;;;;0.27;0.27;;;8.60;99.90;;;;;;5008311;28;20230;-90
2021/05/25 04:32:24;;;;;;;0.20;0.20;;;8.50;99.90;;;;;;5009046;28;20194;-90
2021/05/25 04:34:49;;;;;;;0.30;0.30;;;8.60;99.90;;;;;;4999129;28;20226;-90
2021/05/25 04:37:15;;;;;;;0.30;0.30;;;8.60;99.90;;;;;;5010979;28;20223;-90
2021/05/25 04:39:41;;;;;;;0.20;0.20;;;8.60;99.90;;;;;;5000483;28;20215;-90
2021/05/25 04:42:07;;;;;;;0.20;0.20;;;8.60;99.90;;;;;;5002780;28;20226;-89
2021/05/25 04:44:33;;;;;;;0.20;0.20;;;8.60;99.90;;;;;;4993274;28;20191;-90
2021/05/25 04:46:59;;;;;;;3.63;0.67;;;8.60;99.90;;;;;;5019487;28;20730;-90
2021/05/25 04:49:25;;;;;;;0.20;0.20;;;8.70;99.90;;;;;;4986427;28;20625;-91
2021/05/25 04:51:50;;;;;;;0.30;0.30;;;8.60;99.90;;;;;;5003366;28;20233;-91
2021/05/25 04:54:16;;;;;;;0.20;0.20;;;8.60;99.90;;;;;;5009818;28;21156;-89
2021/05/25 04:56:42;;;;;;;0.20;0.20;;;8.70;99.90;;;;;;4986461;28;20254;-90
2021/05/25 04:59:08;;;;;;;0.30;0.30;;;8.70;99.90;;;;;;5012279;28;20522;-90
2021/05/25 05:01:33;;;;;;;0.30;0.30;;;8.80;99.90;;;;;;5012056;28;20640;-89
2021/05/25 05:03:59;;;;;;;0.43;0.43;;;8.90;99.90;;;;;;5018842;28;20219;-92
2021/05/25 05:06:25;;;;;;;0.47;0.30;;;9.00;99.90;;;;;;5009228;28;20334;-90
2021/05/25 05:08:51;;;;;;;0.50;0.30;;;9.10;99.90;;;;;;5012906;28;20191;-91
2021/05/25 05:11:17;;;;;;;0.27;0.27;;;9.00;99.90;;;;;;5011084;28;20282;-91
2021/05/25 05:13:42;;;;;;;0.50;0.33;;;9.00;99.90;;;;;;5009788;28;20230;-91
2021/05/25 05:16:10;;;;;;;0.30;0.30;;;9.10;99.90;;;;;;5016276;28;20218;-91
2021/05/25 05:18:36;;;;;;;0.20;0.20;;;9.10;99.90;;;;;;5017237;28;20643;-91
2021/05/25 05:21:02;;;;;;;2.00;0.30;;;9.20;99.90;;;;;;5001762;28;20219;-90
2021/05/25 05:23:28;;;;;;;0.47;0.47;;;9.30;99.90;;;;;;5013132;28;20214;-90
2021/05/25 05:25:53;;;;;;;0.10;0.10;;;9.30;99.90;;;;;;5017951;28;20211;-91
2021/05/25 05:28:20;;;;;;;0.20;0.20;;;9.20;99.90;;;;;;5012099;28;20285;-94
2021/05/25 05:30:46;;;;;;;0.33;0.33;;;9.20;99.90;;;;;;5012670;28;20230;-89
2021/05/25 05:33:11;;;;;;;0.33;0.30;;;9.20;99.90;;;;;;5004795;28;20227;-89
2021/05/25 05:35:37;;;;;;;0.30;0.30;;;9.30;99.90;;;;;;5005933;28;20201;-91
2021/05/25 05:38:03;;;;;;;1.60;0.40;;;9.30;99.90;;;;;;5008063;28;20209;-92
2021/05/25 05:40:29;;;;;;;0.87;0.50;;;9.20;99.90;;;;;;5015640;28;20223;-92
2021/05/25 05:42:56;;;;;;;0.47;0.47;;;9.20;99.90;;;;;;5006367;28;20216;-91
2021/05/25 05:45:21;;;;;;;0.30;0.30;;;9.10;99.90;;;;;;5018169;28;20234;-90
2021/05/25 05:47:48;;;;;;;0.33;0.33;;;9.20;99.90;;;;;;5021372;28;21004;-91
2021/05/25 05:50:14;;;;;;;0.40;0.40;;;9.20;99.90;;;;;;5009379;28;20183;-90
2021/05/25 05:52:41;;;;;;;0.30;0.30;;;9.30;99.90;;;;;;5016300;28;20214;-91
2021/05/25 05:55:08;;;;;;;1.97;0.90;;;9.40;99.90;;;;;;5022840;28;20218;-89
2021/05/25 05:57:34;;;;;;;0.20;0.20;;;9.40;99.90;;;;;;5015376;28;20571;-88
2021/05/25 06:00:00;;;;;;;0.50;0.50;;;9.50;99.90;;;;;;5007222;28;20229;-88
2021/05/25 06:02:26;;;;;;;0.30;0.30;;;9.50;99.90;;;;;;5024994;28;20223;-89
2021/05/25 06:04:52;;;;;;;0.30;0.30;;;9.60;99.90;;;;;;5014618;28;20211;-89
2021/05/25 06:07:19;;;;;;;0.30;0.30;;;9.60;99.90;;;;;;5017032;28;20706;-89
2021/05/25 06:09:45;;;;;;;0.27;0.27;;;9.70;99.90;;;;;;5006244;28;20231;-90
2021/05/25 06:12:11;;;;;;;0.20;0.20;;;9.80;99.90;;;;;;5006767;28;20646;-88
2021/05/25 06:14:37;;;;;;;0.33;0.33;;;9.90;99.90;;;;;;5018885;28;20195;-89
2021/05/25 06:17:03;;;;;;;0.20;0.20;;;9.90;99.90;;;;;;4996408;28;20564;-88
2021/05/25 06:19:28;;;;;;;0.20;0.20;;;9.90;99.90;;;;;;5017562;28;20599;-89
2021/05/25 06:21:54;;;;;;;0.30;0.30;;;10.10;99.90;;;;;;5003600;28;20309;-89
2021/05/25 06:24:20;;;;;;;0.20;0.20;;;10.30;99.90;;;;;;5015125;28;20245;-89
2021/05/25 06:26:46;;;;;;;0.40;0.40;;;10.30;99.90;;;;;;5018928;28;20215;-89
2021/05/25 06:29:12;;;;;;;0.87;0.63;;;10.40;99.90;;;;;;5031450;28;20198;-88
2021/05/25 06:31:38;;;;;;;0.27;0.27;;;10.30;99.90;;;;;;5021677;28;20593;-88
2021/05/25 06:34:04;;;;;;;1.23;1.13;;;10.20;99.90;;;;;;5017912;28;20222;-88
2021/05/25 06:36:30;;;;;;;1.47;0.53;;;10.20;99.90;;;;;;5017851;28;20240;-91
2021/05/25 06:38:55;;;;;;;0.40;0.33;;;10.10;99.90;;;;;;4999715;28;20672;-92
2021/05/25 06:41:21;;;;;;;0.40;0.40;;;10.10;99.90;;;;;;5007502;28;20241;-91
2021/05/25 06:43:47;;;;;;;0.53;0.47;;;10.00;99.90;;;;;;5005992;28;20235;-92
2021/05/25 06:46:13;;;;;;;0.20;0.20;;;10.00;99.90;;;;;;5014667;28;20626;-91
2021/05/25 06:48:38;;;;;;;0.57;0.40;;;10.00;99.90;;;;;;5015590;28;21023;-92
2021/05/25 06:51:07;;;;;;;0.20;0.20;;;10.00;99.90;;;;;;5005402;28;20352;-93
2021/05/25 06:53:34;;;;;;;0.40;0.40;;;10.00;99.90;;;;;;5008511;28;20205;-92
2021/05/25 06:56:00;;;;;;;0.27;0.27;;;10.00;99.90;;;;;;5020414;28;20802;-91
2021/05/25 06:58:26;;;;;;;0.20;0.20;;;10.10;99.90;;;;;;4999722;28;20723;-91
2021/05/25 07:00:52;;;;;;;0.40;0.40;;;10.00;99.90;;;;;;4995367;28;20234;-92
2021/05/25 07:03:18;;;;;;;0.40;0.40;;;9.90;99.90;;;;;;4992598;28;20233;-92
2021/05/25 07:05:43;;;;;;;0.40;0.40;;;9.90;99.90;;;;;;5013117;28;20214;-93
2021/05/25 07:08:09;;;;;;;0.40;0.40;;;9.90;99.90;;;;;;5015426;28;20218;-92
2021/05/25 07:10:35;;;;;;;0.57;0.47;;;9.80;99.90;;;;;;5013497;28;20681;-93
2021/05/25 07:13:00;;;;;;;0.30;0.30;;;9.80;99.90;;;;;;5015394;28;20226;-94
2021/05/25 07:15:26;;;;;;;0.73;0.53;;;9.80;99.90;;;;;;5016328;28;20691;-91
2021/05/25 07:17:58;;;;;;;0.53;0.40;;;9.80;99.90;;;;;;5013761;28;20191;-93
2021/05/25 07:20:27;;;;;;;0.90;0.60;;;9.80;99.90;;;;;;5018241;28;20266;-92
2021/05/25 07:22:54;;;;;;;2.83;0.60;;;9.80;99.90;;;;;;5004433;28;20206;-92
2021/05/25 07:25:27;;;;;;;0.30;0.30;;;9.80;99.90;;;;;;5004893;28;20251;-93
2021/05/25 07:27:55;;;;;;;0.97;0.53;;;9.80;99.90;;;;;;5017283;28;20254;-92
2021/05/25 07:30:21;;;;;;;0.20;0.20;;;9.80;99.90;;;;;;5021091;28;20215;-93
2021/05/25 07:32:47;;;;;;;0.47;0.47;;;9.70;99.90;;;;;;5015718;28;20206;-92
2021/05/25 07:35:14;;;;;;;0.60;0.60;;;9.70;99.90;;;;;;5006699;28;20183;-92
2021/05/25 07:37:40;;;;;;;0.37;0.37;;;9.60;99.90;;;;;;5002647;28;20223;-92
2021/05/25 07:40:07;;;;;;;0.40;0.40;;;9.60;99.90;;;;;;5015432;28;20238;-93
2021/05/25 07:42:34;;;;;;;0.40;0.40;;;9.60;99.90;;;;;;5013638;28;20223;-93
2021/05/25 07:44:59;;;;;;;0.60;0.60;;;9.70;99.90;;;;;;5028140;28;20218;-92
2021/05/25 07:47:27;;;;;;;2.50;0.53;;;9.70;99.90;;;;;;5022630;28;20231;-93
2021/05/25 07:49:53;;;;;;;0.40;0.40;;;9.70;99.90;;;;;;5029666;28;20210;-93
2021/05/25 07:52:22;;;;;;;0.70;0.70;;;9.60;99.90;;;;;;5002018;28;20212;-92
2021/05/25 07:54:47;;;;;;;0.40;0.40;;;9.70;99.90;;;;;;5005220;28;20218;-92
2021/05/25 07:57:13;;;;;;;1.23;0.83;;;9.60;99.90;;;;;;5013269;28;20229;-91
2021/05/25 07:59:39;;;;;;;0.70;0.60;;;9.80;99.90;;;;;;5012187;28;20189;-91
2021/05/25 08:02:05;;;;;;;0.80;0.80;;;9.80;99.90;;;;;;5014303;28;20282;-92
2021/05/25 08:04:31;;;;;;;0.30;0.30;;;9.90;99.90;;;;;;5004836;28;20233;-92
2021/05/25 08:06:57;;;;;;;0.50;0.50;;;9.90;99.90;;;;;;5013259;28;20695;-93
2021/05/25 08:09:23;;;;;;;0.87;0.73;;;9.90;99.90;;;;;;5013091;28;20304;-91
2021/05/25 08:11:52;;;;;;;0.63;0.63;;;10.00;99.90;;;;;;5013604;28;20265;-91
2021/05/25 08:14:18;;;;;;;0.57;0.57;;;9.90;99.90;;;;;;5021475;28;20184;-93
2021/05/25 08:16:45;;;;;;;0.47;0.47;;;10.00;99.90;;;;;;5010151;28;20587;-93
2021/05/25 08:21:40;;;;;;;0.80;0.80;;;10.10;99.90;;;;;;5014753;28;20230;-95
2021/05/25 08:24:07;;;;;;;1.30;1.20;;;10.10;99.90;;;;;;5013797;28;20214;-92
2021/05/25 08:26:34;;;;;;;2.40;1.10;;;10.20;99.90;;;;;;5015356;28;20231;-91
2021/05/25 08:29:00;;;;;;;1.60;0.83;;;10.20;99.90;;;;;;5011036;28;20272;-91
2021/05/25 08:31:26;;;;;;;0.57;0.57;;;10.10;99.90;;;;;;5010801;28;20672;-92
2021/05/25 08:33:52;;;;;;;0.60;0.60;;;10.10;99.90;;;;;;5029782;28;20231;-92
2021/05/25 08:36:18;;;;;;;0.60;0.60;;;10.10;99.90;;;;;;5015507;28;20223;-90
2021/05/25 08:38:44;;;;;;;0.40;0.40;;;10.30;99.90;;;;;;5013713;28;20199;-93
2021/05/25 08:41:11;;;;;;;0.50;0.50;;;10.20;99.90;;;;;;5009166;28;20194;-93
2021/05/25 08:43:37;;;;;;;0.90;0.90;;;10.20;99.90;;;;;;5023821;28;20290;-92
2021/05/25 08:46:04;;;;;;;0.70;0.70;;;10.10;99.90;;;;;;5017778;28;20207;-93
2021/05/25 08:48:31;;;;;;;0.57;0.57;;;10.00;99.90;;;;;;5013092;28;20775;-94
2021/05/25 08:51:01;;;;;;;0.80;0.80;;;10.20;99.90;;;;;;5011600;28;20272;-94
2021/05/25 08:53:28;;;;;;;2.53;1.30;;;10.20;99.90;;;;;;5014196;28;20303;-93
2021/05/25 08:55:55;;;;;;;0.63;0.53;;;10.40;99.90;;;;;;5031669;28;20219;-91
2021/05/25 08:58:23;;;;;;;0.83;0.60;;;10.50;99.90;;;;;;5028956;28;20716;-93
2021/05/25 09:00:51;;;;;;;3.33;1.33;;;10.40;99.90;;;;;;5012180;28;20230;-91
2021/05/25 09:03:18;;;;;;;3.80;0.87;;;10.30;99.90;;;;;;5013532;28;20225;-91
2021/05/25 09:05:59;;;;;;;0.83;0.83;;;10.30;99.90;;;;;;5018947;28;20189;-92
2021/05/25 09:08:25;;;;;;;1.70;1.00;;;10.20;99.90;;;;;;5014585;28;20305;-92
2021/05/25 09:10:52;;;;;;;1.70;1.60;;;10.20;99.90;;;;;;5013605;28;20221;-93
2021/05/25 09:13:22;;;;;;;3.17;1.10;;;10.40;99.90;;;;;;5014306;28;20379;-92
2021/05/25 09:15:56;;;;;;;0.43;0.43;;;10.40;99.90;;;;;;5035748;28;20231;-93
2021/05/25 09:18:29;;;;;;;0.77;0.70;;;10.40;99.90;;;;;;5009253;28;20239;-89
2021/05/25 09:21:05;;;;;;;0.90;0.90;;;10.40;99.90;;;;;;5012021;28;20357;-94
2021/05/25 09:23:34;;;;;;;1.93;1.17;;;10.50;99.90;;;;;;4999204;28;20182;-91
2021/05/25 09:26:11;;;;;;;1.50;0.90;;;10.60;99.90;;;;;;5013191;28;20245;-93
2021/05/25 09:28:56;;;;;;;1.17;0.80;;;10.80;99.90;;;;;;5009578;28;20267;-92
2021/05/25 09:31:26;;;;;;;0.70;0.70;;;10.90;99.90;;;;;;5014665;28;20233;-92
2021/05/25 09:34:11;;;;;;;1.10;1.00;;;11.00;99.90;;;;;;5013121;28;20219;-92
2021/05/25 09:37:04;;;;;;;1.67;0.93;;;11.00;99.90;;;;;;5018466;28;20226;-91
2021/05/25 09:39:40;;;;;;;2.13;1.93;;;11.20;99.90;;;;;;5017472;28;20222;-91
2021/05/25 09:42:11;;;;;;;4.33;1.30;;;11.30;99.90;;;;;;4995573;28;20232;-93
2021/05/25 09:44:55;;;;;;;1.07;0.90;;;11.30;99.90;;;;;;5036836;28;20190;-92
2021/05/25 09:47:40;;;;;;;1.03;0.70;;;11.40;99.90;;;;;;5011520;28;20211;-93
2021/05/25 09:50:12;;;;;;;1.30;1.20;;;11.40;99.90;;;;;;5011151;28;20214;-94
2021/05/25 09:53:06;;;;;;;1.60;1.07;;;11.40;99.90;;;;;;4997082;28;20357;-93
2021/05/25 09:55:46;;;;;;;1.60;0.83;;;11.30;99.90;;;;;;5013195;28;20231;-91
2021/05/25 09:58:11;;;;;;;1.00;1.00;;;11.30;99.90;;;;;;5018171;28;20233;-91
2021/05/25 10:00:39;;;;;;;1.10;1.10;;;11.20;99.90;;;;;;5003564;28;20210;-92
2021/05/25 10:03:14;;;;;;;0.80;0.80;;;11.50;99.90;;;;;;5003846;28;20223;-93
2021/05/25 10:06:06;;;;;;;0.43;0.43;;;11.40;99.90;;;;;;5009208;28;20194;-92
2021/05/25 10:08:33;;;;;;;1.87;0.90;;;11.30;99.90;;;;;;4995736;28;20242;-91
2021/05/25 10:10:59;;;;;;;0.80;0.80;;;11.30;99.90;;;;;;5001802;28;20737;-90
2021/05/25 10:13:28;;;;;;;1.13;0.77;;;11.40;99.90;;;;;;5001723;28;20218;-91
2021/05/25 10:15:56;;;;;;;4.20;1.30;;;11.40;99.90;;;;;;5007422;28;20306;-92
2021/05/25 10:21:25;;;;;;;1.07;0.90;;;11.70;99.90;;;;;;4981432;28;20210;-89
2021/05/25 10:23:53;;;;;;;3.27;1.40;;;11.90;99.90;;;;;;5017643;28;20190;-90
2021/05/25 10:26:20;;;;;;;2.63;0.90;;;12.10;99.90;;;;;;5000011;28;20197;-91
2021/05/25 10:28:51;;;;;;;1.90;1.23;;;11.90;99.90;;;;;;5015305;28;20214;-92
2021/05/25 10:31:35;;;;;;;1.53;0.63;;;12.00;99.90;;;;;;5039078;28;20261;-91
2021/05/25 10:34:30;;;;;;;1.27;0.70;;;12.10;99.90;;;;;;5022377;28;20219;-90
2021/05/25 10:36:58;;;;;;;0.87;0.70;;;12.00;99.90;;;;;;5016189;28;20660;-89
2021/05/25 10:39:39;;;;;;;2.33;0.67;;;12.00;99.90;;;;;;5014136;28;20254;-91
2021/05/25 10:42:27;;;;;;;0.93;0.80;;;12.10;99.90;;;;;;5013050;28;20246;-90
2021/05/25 10:44:57;;;;;;;1.13;0.97;;;12.10;99.90;;;;;;5015403;28;20278;-91
2021/05/25 10:47:28;;;;;;;2.57;1.00;;;12.40;99.90;;;;;;5040956;28;20203;-93
2021/05/25 10:50:12;;;;;;;1.37;1.13;;;12.60;99.90;;;;;;5014061;28;20241;-91
2021/05/25 10:52:38;;;;;;;2.20;0.77;;;12.90;99.90;;;;;;5012855;28;20206;-92
2021/05/25 10:55:04;;;;;;;1.27;1.17;;;12.60;99.90;;;;;;5014950;28;20225;-92
2021/05/25 10:57:40;;;;;;;1.40;1.23;;;12.70;99.90;;;;;;5012497;28;20223;-92
2021/05/25 11:00:29;;;;;;;0.80;0.80;;;13.00;99.90;;;;;;5017499;28;20269;-91
2021/05/25 11:03:20;;;;;;;3.00;1.00;;;13.00;99.90;;;;;;5021224;28;20600;-92
2021/05/25 11:05:49;;;;;;;0.80;0.80;;;12.90;99.90;;;;;;5022953;28;20199;-92
2021/05/25 11:08:17;;;;;;;1.10;0.87;;;12.90;99.90;;;;;;5022430;28;20947;-92
2021/05/25 11:10:54;;;;;;;3.03;0.97;;;13.00;99.90;;;;;;5014073;28;20222;-90
2021/05/25 11:13:21;;;;;;;1.07;1.03;;;13.20;99.90;;;;;;5010184;28;20218;-88
2021/05/25 11:16:13;;;;;;;0.70;0.70;;;13.20;99.90;;;;;;5007795;28;20219;-91
2021/05/25 11:24:31;;;;;;;1.13;0.67;;;13.40;99.90;;;;;;5016760;28;20287;-93
2021/05/25 11:27:06;;;;;;;1.07;0.80;;;13.60;99.90;;;;;;5027485;28;20759;-92
2021/05/25 11:29:49;;;;;;;1.83;0.87;;;13.40;99.90;;;;;;5018103;28;20198;-92
2021/05/25 11:32:17;;;;;;;0.80;0.70;;;13.50;99.90;;;;;;4999268;28;20230;-90
2021/05/25 11:34:57;;;;;;;1.33;1.00;;;13.60;99.90;;;;;;4996652;28;20261;-90
2021/05/25 11:37:24;;;;;;;1.67;1.03;;;13.80;99.90;;;;;;5016844;28;20230;-90
2021/05/25 11:39:52;;;;;;;0.97;0.87;;;13.70;99.90;;;;;;5009677;28;20210;-89
2021/05/25 11:42:23;;;;;;;0.90;0.90;;;13.90;99.90;;;;;;5014086;28;20325;-89
2021/05/25 11:44:52;;;;;;;2.33;1.27;;;13.80;99.90;;;;;;5022399;28;20186;-90
2021/05/25 11:47:20;;;;;;;3.23;0.73;;;13.90;99.90;;;;;;5009357;28;20219;-89
2021/05/25 11:49:47;;;;;;;0.60;0.60;;;14.20;99.90;;;;;;5007142;28;20231;-89
2021/05/25 11:52:32;;;;;;;1.93;1.10;;;14.30;99.90;;;;;;5016115;28;20274;-92
2021/05/25 11:54:59;;;;;;;0.97;0.80;;;14.40;99.90;;;;;;5014547;28;20215;-90
2021/05/25 11:57:39;;;;;;;3.20;1.30;;;14.40;99.90;;;;;;5021343;28;20354;-91
2021/05/25 12:00:17;;;;;;;0.97;0.87;;;14.50;99.90;;;;;;5018120;28;20229;-90
2021/05/25 12:02:45;;;;;;;0.70;0.70;;;14.60;99.90;;;;;;5034388;28;20195;-90
2021/05/25 12:05:15;;;;;;;2.33;0.83;;;14.90;99.90;;;;;;5022729;28;21206;-89
2021/05/25 12:07:43;;;;;;;2.57;0.87;;;15.20;99.90;;;;;;5014149;28;20242;-89
2021/05/25 12:10:34;;;;;;;0.47;0.47;;;15.90;99.90;;;;;;5015254;28;20215;-89
2021/05/25 12:13:05;;;;;;;0.60;0.60;;;15.80;99.90;;;;;;5011695;28;20280;-90
2021/05/25 12:15:31;;;;;;;0.60;0.60;;;15.90;99.90;;;;;;5012406;28;20296;-88
2021/05/25 12:17:59;;;;;;;0.63;0.63;;;15.80;99.90;;;;;;4999272;28;20226;-88
2021/05/25 12:20:40;;;;;;;2.10;0.60;;;16.40;99.90;;;;;;5004018;28;20677;-88
2021/05/25 12:23:08;;;;;;;1.17;1.07;;;16.50;99.90;;;;;;5027457;28;20222;-89
2021/05/25 12:25:35;;;;;;;3.27;1.50;;;16.40;99.90;;;;;;5013589;28;20222;-89
2021/05/25 12:28:05;;;;;;;1.97;1.00;;;16.40;99.90;;;;;;5013683;28;20467;-90
2021/05/25 12:30:32;;;;;;;0.73;0.73;;;16.50;99.90;;;;;;5011562;28;20230;-88
2021/05/25 12:32:58;;;;;;;1.33;1.13;;;16.30;99.90;;;;;;5008962;28;20280;-89
2021/05/25 12:35:25;;;;;;;1.17;1.00;;;15.80;99.90;;;;;;4998401;28;20187;-87
2021/05/25 12:38:09;;;;;;;2.03;1.00;;;15.60;99.90;;;;;;5004736;28;20226;-87
2021/05/25 12:40:37;;;;;;;2.70;1.63;;;15.40;99.90;;;;;;5020650;28;20333;-89
2021/05/25 12:43:23;;;;;;;0.63;0.63;;;15.20;99.90;;;;;;5011055;28;20222;-90
2021/05/25 12:45:50;;;;;;;1.33;1.23;;;15.10;99.90;;;;;;5012640;28;20234;-88
2021/05/25 12:48:17;;;;;;;1.60;1.33;;;14.80;99.90;;;;;;5020531;28;20742;-91
2021/05/25 12:50:44;;;;;;;4.10;1.03;;;14.30;99.90;;;;;;5012208;28;20282;-92
2021/05/25 12:53:12;;;;;;;2.00;1.20;;;14.00;99.90;;;;;;5004109;28;20187;-91
2021/05/25 12:56:02;;;;;;;0.50;0.50;;;13.90;99.90;;;;;;5011286;28;20225;-90
2021/05/25 12:58:45;;;;;;;0.90;0.80;;;14.00;99.90;;;;;;5013525;28;20241;-91
2021/05/25 13:01:29;;;;;;;3.03;0.67;;;13.90;99.90;;;;;;5011497;28;20800;-89
2021/05/25 13:03:55;;;;;;;3.30;1.03;;;14.00;99.90;;;;;;5012659;28;20714;-91
2021/05/25 13:08:49;;;;;;;0.87;0.83;;;13.90;99.90;;;;;;5012324;28;20222;-91
2021/05/25 13:11:17;;;;;;;0.57;0.53;;;13.70;99.90;;;;;;5012791;28;20221;-91
2021/05/25 13:13:45;;;;;;;3.93;1.33;;;13.80;99.90;;;;;;5019566;28;20312;-90
2021/05/25 13:16:25;;;;;;;1.70;1.07;;;13.80;99.90;;;;;;5002799;28;20458;-90
2021/05/25 13:18:52;;;;;;;2.50;1.57;;;13.80;99.90;;;;;;5013294;28;20238;-89